createdAt,value
2019-04-05T07:07:32.929Z,20.10
2019-04-05T07:10:03.188Z,17.70
2019-04-05T07:12:32.224Z,16.47
2019-04-05T07:15:01.023Z,17.97
2019-04-05T07:17:32.900Z,16.70
2019-04-05T07:20:03.145Z,16.70
2019-04-05T07:22:38.891Z,17.60
2019-04-05T07:25:02.379Z,17.70
2019-04-05T07:27:31.410Z,16.93
2019-04-05T07:30:00.227Z,16.67
2019-04-05T07:32:31.117Z,18.43
2019-04-05T07:34:59.261Z,17.23
2019-04-05T07:37:28.243Z,17.60
2019-04-05T07:40:06.140Z,17.37
2019-04-05T07:42:41.143Z,17.93
2019-04-05T07:52:37.974Z,21.33
2019-04-05T07:55:07.337Z,20.07
2019-04-05T07:57:36.182Z,19.50
2019-04-05T08:00:07.432Z,17.80
2019-04-05T08:02:36.329Z,19.97
2019-04-05T08:05:06.861Z,18.53
2019-04-05T08:07:37.882Z,18.93
2019-04-05T08:10:08.855Z,18.17
2019-04-05T08:12:37.714Z,18.67
2019-04-05T08:15:07.080Z,17.73
2019-04-05T08:17:36.035Z,18.73
2019-04-05T08:20:07.475Z,18.43
2019-04-05T08:22:36.393Z,18.67
2019-04-05T08:25:06.827Z,17.63
2019-04-05T08:27:37.355Z,18.47
2019-04-05T08:30:07.563Z,17.90
2019-04-05T08:32:39.180Z,17.20
2019-04-05T08:35:16.334Z,18.30
2019-04-05T08:37:48.194Z,18.77
2019-04-05T08:40:17.183Z,18.13
2019-04-05T08:42:47.722Z,17.83
2019-04-05T08:45:16.743Z,17.77
2019-04-05T08:47:48.457Z,15.97
2019-04-05T08:50:21.116Z,16.53
2019-04-05T08:52:51.287Z,16.27
2019-04-05T08:55:21.611Z,17.33
2019-04-05T08:57:50.914Z,15.83
2019-04-05T09:00:19.816Z,14.37
2019-04-05T09:02:49.529Z,17.53
2019-04-05T09:05:19.897Z,15.30
2019-04-05T09:07:48.439Z,17.67
2019-04-05T09:10:18.002Z,18.30
2019-04-05T09:12:46.689Z,15.50
2019-04-05T09:15:17.132Z,16.70
2019-04-05T09:17:45.672Z,16.93
2019-04-05T09:20:14.338Z,17.60
2019-04-05T09:22:45.888Z,16.43
2019-04-05T09:25:15.291Z,17.27
2019-04-05T09:27:44.939Z,17.63
2019-04-05T09:30:17.488Z,17.13
2019-04-05T09:32:46.437Z,18.10
2019-04-05T09:35:17.121Z,17.40
2019-04-05T09:37:45.965Z,12.13
2019-04-05T09:40:14.601Z,11.63
2019-04-05T09:42:43.178Z,12.77
2019-04-05T09:45:13.146Z,11.63
2019-04-05T09:47:45.378Z,12.67
2019-04-05T09:50:15.962Z,12.00
2019-04-05T09:52:44.853Z,12.70
2019-04-05T09:55:13.482Z,13.13
2019-04-05T09:57:43.210Z,12.43
2019-04-05T10:00:28.498Z,12.23
2019-04-05T10:02:58.637Z,12.00
2019-04-05T10:05:27.491Z,11.57
2019-04-05T10:07:57.980Z,12.50
2019-04-05T10:10:26.748Z,11.80
2019-04-05T10:12:56.224Z,10.60
2019-04-05T10:15:26.878Z,12.27
2019-04-05T10:17:57.185Z,12.60
2019-04-05T10:20:25.931Z,11.23
2019-04-05T10:23:00.857Z,11.47
2019-04-05T10:25:29.468Z,11.47
2019-04-05T10:27:58.103Z,13.57
2019-04-05T10:30:28.246Z,12.80
2019-04-05T10:32:56.917Z,14.37
2019-04-05T10:35:25.764Z,12.80
2019-04-05T10:37:54.746Z,14.03
2019-04-05T10:40:25.299Z,13.77
2019-04-05T10:42:54.266Z,12.30
2019-04-05T10:45:23.342Z,11.17
2019-04-05T10:47:52.290Z,11.23
2019-04-05T10:50:21.108Z,11.23
2019-04-05T10:52:50.271Z,11.93
2019-04-05T10:55:19.100Z,10.67
2019-04-05T10:57:48.073Z,14.10
2019-04-05T11:00:18.991Z,12.90
2019-04-05T11:02:47.833Z,14.03
2019-04-05T11:05:17.185Z,11.83
2019-04-05T11:07:47.941Z,12.17
2019-04-05T11:10:16.915Z,13.13
2019-04-05T11:12:46.034Z,11.80
2019-04-05T11:15:15.356Z,12.73
2019-04-05T11:17:44.348Z,12.03
2019-04-05T11:20:21.157Z,12.33
2019-04-05T11:22:46.743Z,12.43
2019-04-05T11:25:16.651Z,12.50
2019-04-05T11:27:45.283Z,12.80
2019-04-05T11:30:15.888Z,10.87
2019-04-05T11:32:45.191Z,12.73
2019-04-05T11:35:15.464Z,11.47
2019-04-05T11:37:44.428Z,11.10
2019-04-05T11:40:13.569Z,11.73
2019-04-05T11:42:42.342Z,11.90
2019-04-05T11:45:11.342Z,10.20
2019-04-05T11:47:40.228Z,10.03
2019-04-05T11:50:10.685Z,8.87
2019-04-05T11:52:39.638Z,9.33
2019-04-05T11:55:09.262Z,9.30
2019-04-05T11:57:41.040Z,9.13
2019-04-05T12:00:14.997Z,9.63
2019-04-05T12:02:51.328Z,8.17
2019-04-05T12:05:22.954Z,8.63
2019-04-05T12:07:52.766Z,9.03
2019-04-05T12:10:21.710Z,8.40
2019-04-05T12:12:52.245Z,8.73
2019-04-05T12:15:21.708Z,8.93
2019-04-05T12:17:50.686Z,8.30
2019-04-05T12:20:19.623Z,8.50
2019-04-05T12:22:48.434Z,8.00
2019-04-05T12:25:17.541Z,8.30
2019-04-05T12:27:46.653Z,8.87
2019-04-05T12:30:20.722Z,8.00
2019-04-05T12:32:50.839Z,7.93
2019-04-05T12:35:22.392Z,9.03
2019-04-05T12:37:55.495Z,7.20
2019-04-05T12:40:21.675Z,7.60
2019-04-05T12:42:53.178Z,8.87
2019-04-05T12:45:21.178Z,8.37
2019-04-05T12:47:50.156Z,8.33
2019-04-05T12:50:19.254Z,8.83
2019-04-05T12:52:49.659Z,9.00
2019-04-05T12:55:23.840Z,8.20
2019-04-05T12:57:50.339Z,8.33
2019-04-05T13:00:19.027Z,9.27
2019-04-05T13:02:50.457Z,8.90
2019-04-05T13:05:20.651Z,8.53
2019-04-05T13:07:50.729Z,9.23
2019-04-05T13:10:20.246Z,9.30
2019-04-05T13:12:51.552Z,8.77
2019-04-05T13:15:19.841Z,8.73
2019-04-05T13:17:48.826Z,7.60
2019-04-05T13:20:18.577Z,9.57
2019-04-05T13:22:48.275Z,8.27
2019-04-05T13:25:18.284Z,7.63
2019-04-05T13:27:47.313Z,7.10
2019-04-05T13:30:18.665Z,8.53
2019-04-05T13:32:47.184Z,8.13
2019-04-05T13:35:17.019Z,8.10
2019-04-05T13:37:47.156Z,7.73
2019-04-05T13:40:16.162Z,8.63
2019-04-05T13:42:45.152Z,8.10
2019-04-05T13:45:13.818Z,8.00
2019-04-05T13:47:42.748Z,7.83
2019-04-05T13:50:13.061Z,7.93
2019-04-05T13:52:42.372Z,7.57
2019-04-05T13:55:11.576Z,7.97
2019-04-05T13:57:43.848Z,7.30
2019-04-05T14:00:17.495Z,7.30
2019-04-05T14:02:45.004Z,6.33
2019-04-05T14:05:13.595Z,6.60
2019-04-05T14:07:42.536Z,7.83
2019-04-05T14:10:12.661Z,7.77
2019-04-05T14:12:41.433Z,6.90
2019-04-05T14:15:11.360Z,6.40
2019-04-05T14:17:44.771Z,8.27
2019-04-05T14:20:13.156Z,10.83
2019-04-05T14:22:42.009Z,6.23
2019-04-05T14:25:10.960Z,6.37
2019-04-05T14:27:40.124Z,6.17
2019-04-05T14:30:10.170Z,5.90
2019-04-05T14:32:40.671Z,7.33
2019-04-05T14:35:09.459Z,5.57
2019-04-05T14:37:38.385Z,5.53
2019-04-05T14:40:07.603Z,5.83
2019-04-05T14:42:36.236Z,5.50
2019-04-05T14:45:07.858Z,5.13
2019-04-05T14:47:36.642Z,6.90
2019-04-05T14:50:07.568Z,8.03
2019-04-05T14:52:36.624Z,6.50
2019-04-05T14:55:05.761Z,7.03
2019-04-05T14:57:35.686Z,7.07
2019-04-05T15:00:07.522Z,7.30
2019-04-05T15:02:36.262Z,7.07
2019-04-05T15:05:06.732Z,8.10
2019-04-05T15:07:37.791Z,7.40
2019-04-05T15:10:07.482Z,7.27
2019-04-05T15:12:38.744Z,6.10
2019-04-05T15:15:08.437Z,7.70
2019-04-05T15:17:47.448Z,8.20
2019-04-05T15:20:09.319Z,7.10
2019-04-05T15:22:42.227Z,7.00
2019-04-05T15:25:10.879Z,7.10
2019-04-05T15:27:39.549Z,6.07
2019-04-05T15:30:08.841Z,6.10
2019-04-05T15:32:38.518Z,7.23
2019-04-05T15:35:10.522Z,7.87
2019-04-05T15:37:39.207Z,8.00
2019-04-05T15:40:08.016Z,9.10
2019-04-05T15:42:36.963Z,8.80
2019-04-05T15:45:09.442Z,9.33
2019-04-05T15:47:38.641Z,8.30
2019-04-05T15:50:08.300Z,9.23
2019-04-05T15:52:37.390Z,9.83
2019-04-05T15:55:08.346Z,9.87
2019-04-05T15:57:39.396Z,9.73
2019-04-05T16:00:09.639Z,9.50
2019-04-05T16:02:43.117Z,14.63
2019-04-05T16:05:12.723Z,11.17
2019-04-05T16:07:42.055Z,10.60
2019-04-05T16:10:14.518Z,12.33
2019-04-05T16:12:43.990Z,11.33
2019-04-05T16:15:13.242Z,11.60
2019-04-05T16:17:42.557Z,12.87
2019-04-05T16:20:13.515Z,12.53
2019-04-05T16:22:42.410Z,13.63
2019-04-05T16:25:11.804Z,14.37
2019-04-05T16:27:41.356Z,13.93
2019-04-05T16:30:15.814Z,15.17
2019-04-05T16:32:47.727Z,15.50
2019-04-05T16:35:24.054Z,16.40
2019-04-05T16:37:56.142Z,15.40
2019-04-05T16:40:31.347Z,16.03
2019-04-05T16:43:03.031Z,16.23
2019-04-05T16:45:32.332Z,16.97
2019-04-05T16:48:01.230Z,18.00
2019-04-05T16:50:30.254Z,16.87
2019-04-05T16:53:00.395Z,16.83
2019-04-05T16:55:31.690Z,16.30
2019-04-05T16:58:01.973Z,17.53
2019-04-05T17:00:30.811Z,17.27
2019-04-05T17:02:59.780Z,16.70
2019-04-05T17:05:30.194Z,17.17
2019-04-05T17:07:59.165Z,18.07
2019-04-05T17:10:28.176Z,17.17
2019-04-05T17:12:57.123Z,17.57
2019-04-05T17:15:25.763Z,16.00
2019-04-05T17:17:55.682Z,18.23
2019-04-05T17:20:24.331Z,17.77
2019-04-05T17:22:58.396Z,17.17
2019-04-05T17:25:26.499Z,19.30
2019-04-05T17:27:56.876Z,18.07
2019-04-05T17:30:25.951Z,19.30
2019-04-05T17:32:57.538Z,19.17
2019-04-05T17:35:30.454Z,18.37
2019-04-05T17:37:58.735Z,19.63
2019-04-05T17:40:27.222Z,18.00
2019-04-05T17:42:57.357Z,19.37
2019-04-05T17:45:28.437Z,18.60
2019-04-05T17:47:57.398Z,20.70
2019-04-05T17:50:31.488Z,18.80
2019-04-05T17:53:11.941Z,19.93
2019-04-05T17:55:33.882Z,18.80
2019-04-05T17:58:06.556Z,19.47
2019-04-05T18:00:35.660Z,19.47
2019-04-05T18:03:06.102Z,19.40
2019-04-05T18:05:34.919Z,18.40
2019-04-05T18:08:07.404Z,17.33
2019-04-05T18:10:36.159Z,18.23
2019-04-05T18:13:05.038Z,17.60
2019-04-05T18:15:35.648Z,18.23
2019-04-05T18:18:05.764Z,18.80
2019-04-05T18:20:37.673Z,19.17
2019-04-05T18:23:06.988Z,18.27
2019-04-05T18:25:38.052Z,19.20
2019-04-05T18:28:08.614Z,19.20
2019-04-05T18:30:37.254Z,19.13
2019-04-05T18:33:08.792Z,18.07
2019-04-05T18:35:40.408Z,18.67
2019-04-05T18:38:12.371Z,18.07
